KDWH/DWH METAR and TAF weather

Enter ICAO airport designator
Station Type Date Time Source
KDWH METAR 2019/11/18 03:53 UTC NOAA

KDWH 180353Z AUTO 00000KT 9SM CLR 12/10 A3002 RMK AO2 SLP163 T01170100 $


Station Type Date Time Source
KDWH Decoded METAR 2019/11/18 03:53 UTC NOAA

HOUSTON HOOKS MEMORIAL, TX, United States (KDWH) 30-04N 95-33W 46M
Nov 17, 2019 - 10:53 PM EST / 2019.11.18 0353 UTC
Wind: Calm:0
Visibility: 9 mile(s):0
Sky conditions: clear
Temperature: 53.1 F (11.7 C)
Dew Point: 50.0 F (10.0 C)
Relative Humidity: 89%
Pressure (altimeter): 30.02 in. Hg (1016 hPa)
ob: KDWH 180353Z AUTO 00000KT 9SM CLR 12/10 A3002 RMK AO2 SLP163 T01170100
cycle: 4

Station Type Date Time Source
KDWH TAF 2017/02/07 15:09 UTC NOAA

TAF
AMD KDWH 071507Z 0715/0812 23010KT P6SM BKN015
TEMPO 0715/0719 SCT015
FM071900 25010KT P6SM SCT025
FM080100 22005KT P6SM SCT250
TEMPO 0807/0809 3SM BR BKN013
FM080900 VRB03KT 2SM BR OVC008

Example: see airport list